sensor_id;sensor_type;location;lat;lon;timestamp;temperature;humidity
15707;DHT22;7953;54.302;10.128;2022-08-24T00:00:22;17.90;99.90
15707;DHT22;7953;54.302;10.128;2022-08-24T00:02:49;17.90;99.90
15707;DHT22;7953;54.302;10.128;2022-08-24T00:05:17;17.80;99.90
15707;DHT22;7953;54.302;10.128;2022-08-24T00:07:46;17.90;99.90
15707;DHT22;7953;54.302;10.128;2022-08-24T00:10:14;17.80;99.90
15707;DHT22;7953;54.302;10.128;2022-08-24T00:12:43;17.80;99.90
15707;DHT22;7953;54.302;10.128;2022-08-24T00:15:11;17.90;99.90
15707;DHT22;7953;54.302;10.128;2022-08-24T00:17:39;17.80;99.90
15707;DHT22;7953;54.302;10.128;2022-08-24T00:20:08;17.80;99.90
15707;DHT22;7953;54.302;10.128;2022-08-24T00:22:36;17.80;99.90
15707;DHT22;7953;54.302;10.128;2022-08-24T00:25:04;17.80;99.90
15707;DHT22;7953;54.302;10.128;2022-08-24T00:27:32;17.80;99.90
15707;DHT22;7953;54.302;10.128;2022-08-24T00:30:00;17.80;99.90
15707;DHT22;7953;54.302;10.128;2022-08-24T00:32:27;17.80;99.90
15707;DHT22;7953;54.302;10.128;2022-08-24T00:34:54;17.80;99.90
15707;DHT22;7953;54.302;10.128;2022-08-24T00:37:22;17.80;99.90
15707;DHT22;7953;54.302;10.128;2022-08-24T00:39:50;17.90;99.90
15707;DHT22;7953;54.302;10.128;2022-08-24T00:42:16;17.90;99.90
15707;DHT22;7953;54.302;10.128;2022-08-24T00:44:43;17.80;99.90
15707;DHT22;7953;54.302;10.128;2022-08-24T00:47:17;17.80;99.90
15707;DHT22;7953;54.302;10.128;2022-08-24T00:49:52;17.80;99.90
15707;DHT22;7953;54.302;10.128;2022-08-24T00:52:23;17.80;99.90
15707;DHT22;7953;54.302;10.128;2022-08-24T00:54:57;17.80;99.90
15707;DHT22;7953;54.302;10.128;2022-08-24T00:57:29;17.80;99.90
15707;DHT22;7953;54.302;10.128;2022-08-24T00:59:59;17.70;99.90
15707;DHT22;7953;54.302;10.128;2022-08-24T01:02:33;17.70;99.90
15707;DHT22;7953;54.302;10.128;2022-08-24T01:05:03;17.70;99.90
15707;DHT22;7953;54.302;10.128;2022-08-24T01:07:32;17.70;99.90
15707;DHT22;7953;54.302;10.128;2022-08-24T01:10:02;17.80;99.90
15707;DHT22;7953;54.302;10.128;2022-08-24T01:12:31;17.80;99.90
15707;DHT22;7953;54.302;10.128;2022-08-24T01:15:00;17.70;99.90
15707;DHT22;7953;54.302;10.128;2022-08-24T01:17:28;17.70;99.90
15707;DHT22;7953;54.302;10.128;2022-08-24T01:20:14;17.60;99.90
15707;DHT22;7953;54.302;10.128;2022-08-24T01:22:55;17.60;99.90
15707;DHT22;7953;54.302;10.128;2022-08-24T01:25:26;17.50;99.90
15707;DHT22;7953;54.302;10.128;2022-08-24T01:27:59;17.50;99.90
15707;DHT22;7953;54.302;10.128;2022-08-24T01:30:27;17.50;99.90
15707;DHT22;7953;54.302;10.128;2022-08-24T01:32:56;17.40;99.90
15707;DHT22;7953;54.302;10.128;2022-08-24T01:35:23;17.40;99.90
15707;DHT22;7953;54.302;10.128;2022-08-24T01:37:50;17.40;99.90
15707;DHT22;7953;54.302;10.128;2022-08-24T01:40:18;17.40;99.90
15707;DHT22;7953;54.302;10.128;2022-08-24T01:42:51;17.40;99.90
15707;DHT22;7953;54.302;10.128;2022-08-24T01:45:19;17.40;99.90
15707;DHT22;7953;54.302;10.128;2022-08-24T01:47:46;17.40;99.90
15707;DHT22;7953;54.302;10.128;2022-08-24T01:50:13;17.40;99.90
15707;DHT22;7953;54.302;10.128;2022-08-24T01:52:41;17.30;99.90
15707;DHT22;7953;54.302;10.128;2022-08-24T01:55:11;17.40;99.90
15707;DHT22;7953;54.302;10.128;2022-08-24T01:57:38;17.30;99.90
15707;DHT22;7953;54.302;10.128;2022-08-24T02:00:10;17.30;99.90
15707;DHT22;7953;54.302;10.128;2022-08-24T02:02:40;17.30;99.90
15707;DHT22;7953;54.302;10.128;2022-08-24T02:05:08;17.30;99.90
15707;DHT22;7953;54.302;10.128;2022-08-24T02:07:35;17.30;99.90
15707;DHT22;7953;54.302;10.128;2022-08-24T02:10:04;17.30;99.90
15707;DHT22;7953;54.302;10.128;2022-08-24T02:12:31;17.30;99.90
15707;DHT22;7953;54.302;10.128;2022-08-24T02:14:58;17.30;99.90
15707;DHT22;7953;54.302;10.128;2022-08-24T02:17:28;17.30;99.90
15707;DHT22;7953;54.302;10.128;2022-08-24T02:19:55;17.20;99.90
15707;DHT22;7953;54.302;10.128;2022-08-24T02:22:22;17.20;99.90
15707;DHT22;7953;54.302;10.128;2022-08-24T02:24:49;17.20;99.90
15707;DHT22;7953;54.302;10.128;2022-08-24T02:27:16;17.20;99.90
15707;DHT22;7953;54.302;10.128;2022-08-24T02:29:43;17.20;99.90
15707;DHT22;7953;54.302;10.128;2022-08-24T02:32:11;17.10;99.90
15707;DHT22;7953;54.302;10.128;2022-08-24T02:34:40;17.20;99.90
15707;DHT22;7953;54.302;10.128;2022-08-24T02:37:08;17.20;99.90
15707;DHT22;7953;54.302;10.128;2022-08-24T02:39:35;17.10;99.90
15707;DHT22;7953;54.302;10.128;2022-08-24T02:42:02;17.10;99.90
15707;DHT22;7953;54.302;10.128;2022-08-24T02:44:29;17.10;99.90
15707;DHT22;7953;54.302;10.128;2022-08-24T02:46:56;17.00;99.90
15707;DHT22;7953;54.302;10.128;2022-08-24T02:49:25;17.00;99.90
15707;DHT22;7953;54.302;10.128;2022-08-24T02:51:53;17.00;99.90
15707;DHT22;7953;54.302;10.128;2022-08-24T02:54:20;16.90;99.90
15707;DHT22;7953;54.302;10.128;2022-08-24T02:56:47;16.90;99.90
15707;DHT22;7953;54.302;10.128;2022-08-24T02:59:15;16.90;99.90
15707;DHT22;7953;54.302;10.128;2022-08-24T03:01:43;16.80;99.90
15707;DHT22;7953;54.302;10.128;2022-08-24T03:04:10;16.90;99.90
15707;DHT22;7953;54.302;10.128;2022-08-24T03:06:37;16.80;99.90
15707;DHT22;7953;54.302;10.128;2022-08-24T03:09:05;16.80;99.90
15707;DHT22;7953;54.302;10.128;2022-08-24T03:11:32;16.70;99.90
15707;DHT22;7953;54.302;10.128;2022-08-24T03:13:59;16.70;99.90
15707;DHT22;7953;54.302;10.128;2022-08-24T03:16:26;16.70;99.90
15707;DHT22;7953;54.302;10.128;2022-08-24T03:18:54;16.70;99.90
15707;DHT22;7953;54.302;10.128;2022-08-24T03:21:21;16.70;99.90
15707;DHT22;7953;54.302;10.128;2022-08-24T03:23:48;16.70;99.90
15707;DHT22;7953;54.302;10.128;2022-08-24T03:26:16;16.70;99.90
15707;DHT22;7953;54.302;10.128;2022-08-24T03:28:43;16.60;99.90
15707;DHT22;7953;54.302;10.128;2022-08-24T03:31:10;16.60;99.90
15707;DHT22;7953;54.302;10.128;2022-08-24T03:33:37;16.60;99.90
15707;DHT22;7953;54.302;10.128;2022-08-24T03:36:04;16.60;99.90
15707;DHT22;7953;54.302;10.128;2022-08-24T03:38:31;16.60;99.90
15707;DHT22;7953;54.302;10.128;2022-08-24T03:40:58;16.60;99.90
15707;DHT22;7953;54.302;10.128;2022-08-24T03:43:26;16.60;99.90
15707;DHT22;7953;54.302;10.128;2022-08-24T03:46:13;16.50;99.90
15707;DHT22;7953;54.302;10.128;2022-08-24T03:48:40;16.50;99.90
15707;DHT22;7953;54.302;10.128;2022-08-24T03:51:10;16.50;99.90
15707;DHT22;7953;54.302;10.128;2022-08-24T03:53:37;16.50;99.90
15707;DHT22;7953;54.302;10.128;2022-08-24T03:56:05;16.50;99.90
15707;DHT22;7953;54.302;10.128;2022-08-24T03:58:34;16.50;99.90
15707;DHT22;7953;54.302;10.128;2022-08-24T04:01:01;16.50;99.90
15707;DHT22;7953;54.302;10.128;2022-08-24T04:03:28;16.50;99.90
15707;DHT22;7953;54.302;10.128;2022-08-24T04:05:55;16.40;99.90
15707;DHT22;7953;54.302;10.128;2022-08-24T04:08:22;16.40;99.90
15707;DHT22;7953;54.302;10.128;2022-08-24T04:10:49;16.40;99.90
15707;DHT22;7953;54.302;10.128;2022-08-24T04:13:16;16.40;99.90
15707;DHT22;7953;54.302;10.128;2022-08-24T04:15:45;16.40;99.90
15707;DHT22;7953;54.302;10.128;2022-08-24T04:18:12;16.40;99.90
15707;DHT22;7953;54.302;10.128;2022-08-24T04:20:40;16.40;99.90
15707;DHT22;7953;54.302;10.128;2022-08-24T04:23:08;16.40;99.90
15707;DHT22;7953;54.302;10.128;2022-08-24T04:25:40;16.40;99.90
15707;DHT22;7953;54.302;10.128;2022-08-24T04:28:07;16.40;99.90
15707;DHT22;7953;54.302;10.128;2022-08-24T04:30:34;16.40;99.90
15707;DHT22;7953;54.302;10.128;2022-08-24T04:33:06;16.40;99.90
15707;DHT22;7953;54.302;10.128;2022-08-24T04:35:37;16.40;99.90
15707;DHT22;7953;54.302;10.128;2022-08-24T04:38:04;16.40;99.90
15707;DHT22;7953;54.302;10.128;2022-08-24T04:40:31;16.40;99.90
15707;DHT22;7953;54.302;10.128;2022-08-24T04:42:58;16.40;99.90
15707;DHT22;7953;54.302;10.128;2022-08-24T04:45:26;16.40;99.90
15707;DHT22;7953;54.302;10.128;2022-08-24T04:47:54;16.40;99.90
15707;DHT22;7953;54.302;10.128;2022-08-24T04:50:22;16.40;99.90
15707;DHT22;7953;54.302;10.128;2022-08-24T04:52:49;16.40;99.90
15707;DHT22;7953;54.302;10.128;2022-08-24T04:55:16;16.40;99.90
15707;DHT22;7953;54.302;10.128;2022-08-24T04:57:43;16.50;99.90
15707;DHT22;7953;54.302;10.128;2022-08-24T05:00:11;16.50;99.90
15707;DHT22;7953;54.302;10.128;2022-08-24T05:02:38;16.50;99.90
15707;DHT22;7953;54.302;10.128;2022-08-24T05:05:06;16.50;99.90
15707;DHT22;7953;54.302;10.128;2022-08-24T05:07:35;16.60;99.90
15707;DHT22;7953;54.302;10.128;2022-08-24T05:10:03;16.60;99.90
15707;DHT22;7953;54.302;10.128;2022-08-24T05:12:30;16.60;99.90
15707;DHT22;7953;54.302;10.128;2022-08-24T05:14:57;16.60;99.90
15707;DHT22;7953;54.302;10.128;2022-08-24T05:17:25;16.70;99.90
15707;DHT22;7953;54.302;10.128;2022-08-24T05:19:52;16.70;99.90
15707;DHT22;7953;54.302;10.128;2022-08-24T05:22:19;16.80;99.90
15707;DHT22;7953;54.302;10.128;2022-08-24T05:24:47;16.80;99.90
15707;DHT22;7953;54.302;10.128;2022-08-24T05:27:14;16.80;99.90
15707;DHT22;7953;54.302;10.128;2022-08-24T05:29:41;16.90;99.90
15707;DHT22;7953;54.302;10.128;2022-08-24T05:32:09;17.00;99.90
15707;DHT22;7953;54.302;10.128;2022-08-24T05:34:36;17.10;99.90
15707;DHT22;7953;54.302;10.128;2022-08-24T05:37:03;17.10;99.90
15707;DHT22;7953;54.302;10.128;2022-08-24T05:39:30;17.10;99.90
15707;DHT22;7953;54.302;10.128;2022-08-24T05:41:58;17.20;99.90
15707;DHT22;7953;54.302;10.128;2022-08-24T05:44:26;17.20;99.90
15707;DHT22;7953;54.302;10.128;2022-08-24T05:46:54;17.20;99.90
15707;DHT22;7953;54.302;10.128;2022-08-24T05:49:22;17.30;99.90
15707;DHT22;7953;54.302;10.128;2022-08-24T05:51:49;17.30;99.90
15707;DHT22;7953;54.302;10.128;2022-08-24T05:54:17;17.30;99.90
15707;DHT22;7953;54.302;10.128;2022-08-24T05:56:45;17.40;99.90
15707;DHT22;7953;54.302;10.128;2022-08-24T05:59:13;17.40;99.90
15707;DHT22;7953;54.302;10.128;2022-08-24T06:01:42;17.40;99.90
15707;DHT22;7953;54.302;10.128;2022-08-24T06:04:09;17.50;99.90
15707;DHT22;7953;54.302;10.128;2022-08-24T06:06:37;17.60;99.90
15707;DHT22;7953;54.302;10.128;2022-08-24T06:09:04;17.60;99.90
15707;DHT22;7953;54.302;10.128;2022-08-24T06:11:33;17.60;99.90
15707;DHT22;7953;54.302;10.128;2022-08-24T06:14:01;17.70;99.90
15707;DHT22;7953;54.302;10.128;2022-08-24T06:16:32;17.80;99.90
15707;DHT22;7953;54.302;10.128;2022-08-24T06:18:59;17.90;99.90
15707;DHT22;7953;54.302;10.128;2022-08-24T06:21:26;18.00;99.90
15707;DHT22;7953;54.302;10.128;2022-08-24T06:23:54;18.10;99.90
15707;DHT22;7953;54.302;10.128;2022-08-24T06:26:21;18.10;99.90
15707;DHT22;7953;54.302;10.128;2022-08-24T06:29:06;18.10;99.90
15707;DHT22;7953;54.302;10.128;2022-08-24T06:31:36;18.20;99.90
15707;DHT22;7953;54.302;10.128;2022-08-24T06:34:04;18.30;99.90
15707;DHT22;7953;54.302;10.128;2022-08-24T06:36:31;18.30;99.90
15707;DHT22;7953;54.302;10.128;2022-08-24T06:38:58;18.30;99.90
15707;DHT22;7953;54.302;10.128;2022-08-24T06:41:25;18.40;99.90
15707;DHT22;7953;54.302;10.128;2022-08-24T06:43:51;18.50;99.90
15707;DHT22;7953;54.302;10.128;2022-08-24T06:46:18;18.60;99.90
15707;DHT22;7953;54.302;10.128;2022-08-24T06:48:47;18.60;99.90
15707;DHT22;7953;54.302;10.128;2022-08-24T06:51:18;18.70;99.90
15707;DHT22;7953;54.302;10.128;2022-08-24T06:53:45;18.80;99.90
15707;DHT22;7953;54.302;10.128;2022-08-24T06:56:12;18.80;99.90
15707;DHT22;7953;54.302;10.128;2022-08-24T06:58:39;18.90;99.90
15707;DHT22;7953;54.302;10.128;2022-08-24T07:01:08;19.00;99.90
15707;DHT22;7953;54.302;10.128;2022-08-24T07:03:35;19.10;99.90
15707;DHT22;7953;54.302;10.128;2022-08-24T07:06:05;19.30;99.90
15707;DHT22;7953;54.302;10.128;2022-08-24T07:08:33;19.30;99.90
15707;DHT22;7953;54.302;10.128;2022-08-24T07:11:00;19.40;99.90
15707;DHT22;7953;54.302;10.128;2022-08-24T07:13:28;19.40;99.90
15707;DHT22;7953;54.302;10.128;2022-08-24T07:15:56;19.40;99.90
15707;DHT22;7953;54.302;10.128;2022-08-24T07:18:23;19.50;99.90
15707;DHT22;7953;54.302;10.128;2022-08-24T07:20:51;19.60;99.90
15707;DHT22;7953;54.302;10.128;2022-08-24T07:23:19;19.70;99.90
15707;DHT22;7953;54.302;10.128;2022-08-24T07:25:47;19.80;99.90
15707;DHT22;7953;54.302;10.128;2022-08-24T07:28:15;19.90;99.90
15707;DHT22;7953;54.302;10.128;2022-08-24T07:30:42;20.00;99.90
15707;DHT22;7953;54.302;10.128;2022-08-24T07:33:10;20.10;99.90
15707;DHT22;7953;54.302;10.128;2022-08-24T07:35:37;20.20;99.90
15707;DHT22;7953;54.302;10.128;2022-08-24T07:38:06;20.20;99.90
15707;DHT22;7953;54.302;10.128;2022-08-24T07:40:34;20.30;99.90
15707;DHT22;7953;54.302;10.128;2022-08-24T07:43:02;20.50;99.90
15707;DHT22;7953;54.302;10.128;2022-08-24T07:45:29;20.50;99.90
15707;DHT22;7953;54.302;10.128;2022-08-24T07:47:58;20.60;99.90
15707;DHT22;7953;54.302;10.128;2022-08-24T07:50:28;20.70;99.90
15707;DHT22;7953;54.302;10.128;2022-08-24T07:52:56;20.80;99.90
15707;DHT22;7953;54.302;10.128;2022-08-24T07:55:23;20.90;99.90
15707;DHT22;7953;54.302;10.128;2022-08-24T07:57:51;21.10;99.90
15707;DHT22;7953;54.302;10.128;2022-08-24T08:00:19;21.20;99.90
15707;DHT22;7953;54.302;10.128;2022-08-24T08:02:46;21.30;99.90
15707;DHT22;7953;54.302;10.128;2022-08-24T08:05:15;21.40;99.90
15707;DHT22;7953;54.302;10.128;2022-08-24T08:07:42;21.50;99.90
15707;DHT22;7953;54.302;10.128;2022-08-24T08:10:11;21.60;99.90
15707;DHT22;7953;54.302;10.128;2022-08-24T08:12:38;21.60;99.90
15707;DHT22;7953;54.302;10.128;2022-08-24T08:15:08;21.60;99.90
15707;DHT22;7953;54.302;10.128;2022-08-24T08:17:35;21.70;99.90
15707;DHT22;7953;54.302;10.128;2022-08-24T08:20:03;21.80;99.90
15707;DHT22;7953;54.302;10.128;2022-08-24T08:22:31;22.10;99.90
15707;DHT22;7953;54.302;10.128;2022-08-24T08:25:15;22.30;99.90
15707;DHT22;7953;54.302;10.128;2022-08-24T08:27:43;22.50;99.90
15707;DHT22;7953;54.302;10.128;2022-08-24T08:30:13;22.70;99.90
15707;DHT22;7953;54.302;10.128;2022-08-24T08:32:40;23.00;99.90
15707;DHT22;7953;54.302;10.128;2022-08-24T08:35:07;23.30;99.90
15707;DHT22;7953;54.302;10.128;2022-08-24T08:37:35;23.60;99.90
15707;DHT22;7953;54.302;10.128;2022-08-24T08:40:03;24.00;99.90
15707;DHT22;7953;54.302;10.128;2022-08-24T08:42:41;24.30;99.90
15707;DHT22;7953;54.302;10.128;2022-08-24T08:45:38;24.60;99.90
15707;DHT22;7953;54.302;10.128;2022-08-24T08:51:48;25.20;99.90
15707;DHT22;7953;54.302;10.128;2022-08-24T08:54:28;25.60;99.90
15707;DHT22;7953;54.302;10.128;2022-08-24T08:57:22;25.80;99.90
15707;DHT22;7953;54.302;10.128;2022-08-24T09:00:07;25.90;99.90
15707;DHT22;7953;54.302;10.128;2022-08-24T09:06:11;26.30;99.90
15707;DHT22;7953;54.302;10.128;2022-08-24T09:08:55;26.50;99.90
15707;DHT22;7953;54.302;10.128;2022-08-24T09:11:35;26.70;99.90
15707;DHT22;7953;54.302;10.128;2022-08-24T09:14:28;26.90;99.90
15707;DHT22;7953;54.302;10.128;2022-08-24T09:17:08;27.10;99.90
15707;DHT22;7953;54.302;10.128;2022-08-24T09:19:54;27.30;99.90
15707;DHT22;7953;54.302;10.128;2022-08-24T09:22:23;27.50;99.90
15707;DHT22;7953;54.302;10.128;2022-08-24T09:25:07;27.60;99.90
15707;DHT22;7953;54.302;10.128;2022-08-24T09:27:42;27.80;99.90
15707;DHT22;7953;54.302;10.128;2022-08-24T09:30:15;27.90;99.90
15707;DHT22;7953;54.302;10.128;2022-08-24T09:32:57;28.10;99.90
15707;DHT22;7953;54.302;10.128;2022-08-24T09:35:32;28.20;99.90
15707;DHT22;7953;54.302;10.128;2022-08-24T09:38:06;28.20;99.90
15707;DHT22;7953;54.302;10.128;2022-08-24T09:40:43;28.10;99.90
15707;DHT22;7953;54.302;10.128;2022-08-24T09:46:54;28.20;99.90
15707;DHT22;7953;54.302;10.128;2022-08-24T09:49:55;28.40;99.90
15707;DHT22;7953;54.302;10.128;2022-08-24T09:56:03;28.40;99.90
15707;DHT22;7953;54.302;10.128;2022-08-24T09:58:42;28.50;99.90
15707;DHT22;7953;54.302;10.128;2022-08-24T10:01:17;28.50;99.90
15707;DHT22;7953;54.302;10.128;2022-08-24T10:03:59;28.60;99.90
15707;DHT22;7953;54.302;10.128;2022-08-24T10:06:32;28.50;99.90
15707;DHT22;7953;54.302;10.128;2022-08-24T10:09:18;28.60;99.90
15707;DHT22;7953;54.302;10.128;2022-08-24T10:11:53;28.60;99.90
15707;DHT22;7953;54.302;10.128;2022-08-24T10:14:40;28.60;99.90
15707;DHT22;7953;54.302;10.128;2022-08-24T10:17:16;28.60;99.90
15707;DHT22;7953;54.302;10.128;2022-08-24T10:19:54;28.60;99.90
15707;DHT22;7953;54.302;10.128;2022-08-24T10:22:41;28.70;99.90
15707;DHT22;7953;54.302;10.128;2022-08-24T10:25:27;28.80;99.90
15707;DHT22;7953;54.302;10.128;2022-08-24T10:28:06;28.90;99.90
15707;DHT22;7953;54.302;10.128;2022-08-24T10:30:54;28.90;99.90
15707;DHT22;7953;54.302;10.128;2022-08-24T10:33:25;28.90;99.90
15707;DHT22;7953;54.302;10.128;2022-08-24T10:36:18;28.80;99.90
15707;DHT22;7953;54.302;10.128;2022-08-24T10:38:48;28.90;99.90
15707;DHT22;7953;54.302;10.128;2022-08-24T10:42:11;29.00;99.90
15707;DHT22;7953;54.302;10.128;2022-08-24T10:45:16;29.00;99.90
15707;DHT22;7953;54.302;10.128;2022-08-24T10:47:59;29.10;99.90
15707;DHT22;7953;54.302;10.128;2022-08-24T10:50:42;29.10;99.90
15707;DHT22;7953;54.302;10.128;2022-08-24T10:53:23;28.80;99.90
15707;DHT22;7953;54.302;10.128;2022-08-24T10:56:03;28.40;99.90
15707;DHT22;7953;54.302;10.128;2022-08-24T10:58:49;28.30;99.90
15707;DHT22;7953;54.302;10.128;2022-08-24T11:01:24;28.30;99.90
15707;DHT22;7953;54.302;10.128;2022-08-24T11:03:59;28.30;99.90
15707;DHT22;7953;54.302;10.128;2022-08-24T11:06:29;28.30;99.90
15707;DHT22;7953;54.302;10.128;2022-08-24T11:09:00;28.40;99.90
15707;DHT22;7953;54.302;10.128;2022-08-24T11:11:30;28.40;99.90
15707;DHT22;7953;54.302;10.128;2022-08-24T11:13:59;28.20;99.90
15707;DHT22;7953;54.302;10.128;2022-08-24T11:16:32;28.20;99.90
15707;DHT22;7953;54.302;10.128;2022-08-24T11:19:03;28.10;99.90
15707;DHT22;7953;54.302;10.128;2022-08-24T11:21:38;28.00;99.90
15707;DHT22;7953;54.302;10.128;2022-08-24T11:24:08;28.00;99.90
15707;DHT22;7953;54.302;10.128;2022-08-24T11:26:50;28.10;99.90
15707;DHT22;7953;54.302;10.128;2022-08-24T11:29:18;28.20;99.90
15707;DHT22;7953;54.302;10.128;2022-08-24T11:31:49;28.10;99.90
15707;DHT22;7953;54.302;10.128;2022-08-24T11:34:19;28.10;99.90
15707;DHT22;7953;54.302;10.128;2022-08-24T11:36:55;28.10;99.90
15707;DHT22;7953;54.302;10.128;2022-08-24T11:39:26;28.10;99.90
15707;DHT22;7953;54.302;10.128;2022-08-24T11:41:57;28.10;99.90
15707;DHT22;7953;54.302;10.128;2022-08-24T11:44:37;28.00;99.90
15707;DHT22;7953;54.302;10.128;2022-08-24T11:47:24;28.00;99.90
15707;DHT22;7953;54.302;10.128;2022-08-24T11:50:02;28.10;99.90
15707;DHT22;7953;54.302;10.128;2022-08-24T11:52:40;28.10;99.90
15707;DHT22;7953;54.302;10.128;2022-08-24T11:55:14;28.20;99.90
15707;DHT22;7953;54.302;10.128;2022-08-24T11:57:49;28.20;99.90
15707;DHT22;7953;54.302;10.128;2022-08-24T12:00:19;28.30;99.90
15707;DHT22;7953;54.302;10.128;2022-08-24T12:02:54;28.30;99.90
15707;DHT22;7953;54.302;10.128;2022-08-24T12:05:30;28.30;99.90
15707;DHT22;7953;54.302;10.128;2022-08-24T12:08:04;28.40;99.90
15707;DHT22;7953;54.302;10.128;2022-08-24T12:10:43;28.30;99.90
15707;DHT22;7953;54.302;10.128;2022-08-24T12:13:24;28.30;99.90
15707;DHT22;7953;54.302;10.128;2022-08-24T12:15:58;28.30;99.90
15707;DHT22;7953;54.302;10.128;2022-08-24T12:18:36;28.20;99.90
15707;DHT22;7953;54.302;10.128;2022-08-24T12:21:06;28.20;99.90
15707;DHT22;7953;54.302;10.128;2022-08-24T12:23:37;28.20;99.90
15707;DHT22;7953;54.302;10.128;2022-08-24T12:26:09;28.20;99.90
15707;DHT22;7953;54.302;10.128;2022-08-24T12:28:40;28.20;99.90
15707;DHT22;7953;54.302;10.128;2022-08-24T12:31:11;28.20;99.90
15707;DHT22;7953;54.302;10.128;2022-08-24T12:33:47;28.20;99.90
15707;DHT22;7953;54.302;10.128;2022-08-24T12:36:22;28.30;99.90
15707;DHT22;7953;54.302;10.128;2022-08-24T12:39:00;28.30;99.90
15707;DHT22;7953;54.302;10.128;2022-08-24T12:41:32;28.30;99.90
15707;DHT22;7953;54.302;10.128;2022-08-24T12:44:03;28.30;99.90
15707;DHT22;7953;54.302;10.128;2022-08-24T12:46:33;28.30;99.90
15707;DHT22;7953;54.302;10.128;2022-08-24T12:49:07;28.30;99.90
15707;DHT22;7953;54.302;10.128;2022-08-24T12:51:48;28.30;99.90
15707;DHT22;7953;54.302;10.128;2022-08-24T12:54:48;28.30;99.90
15707;DHT22;7953;54.302;10.128;2022-08-24T12:57:27;28.30;99.90
15707;DHT22;7953;54.302;10.128;2022-08-24T13:00:02;28.40;99.90
15707;DHT22;7953;54.302;10.128;2022-08-24T13:02:35;28.40;99.90
15707;DHT22;7953;54.302;10.128;2022-08-24T13:05:10;28.40;99.90
15707;DHT22;7953;54.302;10.128;2022-08-24T13:07:41;28.40;99.90
15707;DHT22;7953;54.302;10.128;2022-08-24T13:10:15;28.40;99.90
15707;DHT22;7953;54.302;10.128;2022-08-24T13:13:21;28.40;99.90
15707;DHT22;7953;54.302;10.128;2022-08-24T13:15:59;28.40;99.90
15707;DHT22;7953;54.302;10.128;2022-08-24T13:18:46;28.40;99.90
15707;DHT22;7953;54.302;10.128;2022-08-24T13:21:33;28.40;99.90
15707;DHT22;7953;54.302;10.128;2022-08-24T13:33:29;28.30;99.90
15707;DHT22;7953;54.302;10.128;2022-08-24T13:39:16;28.30;99.90
15707;DHT22;7953;54.302;10.128;2022-08-24T13:41:50;28.30;99.90
15707;DHT22;7953;54.302;10.128;2022-08-24T13:44:27;28.20;99.90
15707;DHT22;7953;54.302;10.128;2022-08-24T13:47:07;28.30;99.90
15707;DHT22;7953;54.302;10.128;2022-08-24T13:49:49;28.30;99.90
15707;DHT22;7953;54.302;10.128;2022-08-24T13:52:36;28.30;99.90
15707;DHT22;7953;54.302;10.128;2022-08-24T13:55:34;28.30;99.90
15707;DHT22;7953;54.302;10.128;2022-08-24T13:58:14;28.30;99.90
15707;DHT22;7953;54.302;10.128;2022-08-24T14:00:48;28.20;99.90
15707;DHT22;7953;54.302;10.128;2022-08-24T14:06:35;28.20;99.90
15707;DHT22;7953;54.302;10.128;2022-08-24T14:09:26;28.10;99.90
15707;DHT22;7953;54.302;10.128;2022-08-24T14:12:14;28.10;99.90
15707;DHT22;7953;54.302;10.128;2022-08-24T14:14:57;28.10;99.90
15707;DHT22;7953;54.302;10.128;2022-08-24T14:17:36;28.00;99.90
15707;DHT22;7953;54.302;10.128;2022-08-24T14:20:47;27.90;99.90
15707;DHT22;7953;54.302;10.128;2022-08-24T14:23:27;27.80;99.90
15707;DHT22;7953;54.302;10.128;2022-08-24T14:29:28;27.80;99.90
15707;DHT22;7953;54.302;10.128;2022-08-24T14:38:14;27.70;99.90
15707;DHT22;7953;54.302;10.128;2022-08-24T14:41:00;27.70;99.90
15707;DHT22;7953;54.302;10.128;2022-08-24T14:43:33;27.70;99.90
15707;DHT22;7953;54.302;10.128;2022-08-24T14:46:17;27.60;99.90
15707;DHT22;7953;54.302;10.128;2022-08-24T14:48:56;27.60;99.90
15707;DHT22;7953;54.302;10.128;2022-08-24T14:54:35;27.60;99.90
15707;DHT22;7953;54.302;10.128;2022-08-24T14:57:29;27.50;99.90
15707;DHT22;7953;54.302;10.128;2022-08-24T15:00:05;27.50;99.90
15707;DHT22;7953;54.302;10.128;2022-08-24T15:03:09;27.50;99.90
15707;DHT22;7953;54.302;10.128;2022-08-24T15:05:41;27.50;99.90
15707;DHT22;7953;54.302;10.128;2022-08-24T15:08:10;27.40;99.90
15707;DHT22;7953;54.302;10.128;2022-08-24T15:10:44;27.40;99.90
15707;DHT22;7953;54.302;10.128;2022-08-24T15:13:26;27.30;99.90
15707;DHT22;7953;54.302;10.128;2022-08-24T15:15:59;27.30;99.90
15707;DHT22;7953;54.302;10.128;2022-08-24T15:18:32;27.30;99.90
15707;DHT22;7953;54.302;10.128;2022-08-24T15:21:24;27.20;99.90
15707;DHT22;7953;54.302;10.128;2022-08-24T15:24:04;27.20;99.90
15707;DHT22;7953;54.302;10.128;2022-08-24T15:26:44;27.20;99.90
15707;DHT22;7953;54.302;10.128;2022-08-24T15:29:18;27.20;99.90
15707;DHT22;7953;54.302;10.128;2022-08-24T15:31:56;27.20;99.90
15707;DHT22;7953;54.302;10.128;2022-08-24T15:34:36;27.10;99.90
15707;DHT22;7953;54.302;10.128;2022-08-24T15:37:04;27.20;99.90
15707;DHT22;7953;54.302;10.128;2022-08-24T15:39:31;27.20;99.90
15707;DHT22;7953;54.302;10.128;2022-08-24T15:42:01;27.20;99.90
15707;DHT22;7953;54.302;10.128;2022-08-24T15:44:30;27.30;99.90
15707;DHT22;7953;54.302;10.128;2022-08-24T15:47:04;27.30;99.90
15707;DHT22;7953;54.302;10.128;2022-08-24T15:49:45;27.20;99.90
15707;DHT22;7953;54.302;10.128;2022-08-24T15:52:36;27.20;99.90
15707;DHT22;7953;54.302;10.128;2022-08-24T15:55:06;27.10;99.90
15707;DHT22;7953;54.302;10.128;2022-08-24T15:57:36;27.10;99.90
15707;DHT22;7953;54.302;10.128;2022-08-24T16:00:08;27.10;99.90
15707;DHT22;7953;54.302;10.128;2022-08-24T16:02:37;27.00;99.90
15707;DHT22;7953;54.302;10.128;2022-08-24T16:05:16;27.00;99.90
15707;DHT22;7953;54.302;10.128;2022-08-24T16:08:08;27.00;99.90
15707;DHT22;7953;54.302;10.128;2022-08-24T16:10:38;27.00;99.90
15707;DHT22;7953;54.302;10.128;2022-08-24T16:13:09;27.00;99.90
15707;DHT22;7953;54.302;10.128;2022-08-24T16:15:44;27.00;99.90
15707;DHT22;7953;54.302;10.128;2022-08-24T16:18:12;27.00;99.90
15707;DHT22;7953;54.302;10.128;2022-08-24T16:20:40;26.90;99.90
15707;DHT22;7953;54.302;10.128;2022-08-24T16:23:10;26.80;99.90
15707;DHT22;7953;54.302;10.128;2022-08-24T16:25:40;26.80;99.90
15707;DHT22;7953;54.302;10.128;2022-08-24T16:28:09;26.70;99.90
15707;DHT22;7953;54.302;10.128;2022-08-24T16:30:44;26.70;99.90
15707;DHT22;7953;54.302;10.128;2022-08-24T16:33:43;26.70;99.90
15707;DHT22;7953;54.302;10.128;2022-08-24T16:36:13;26.70;99.90
15707;DHT22;7953;54.302;10.128;2022-08-24T16:38:45;26.70;99.90
15707;DHT22;7953;54.302;10.128;2022-08-24T16:41:15;26.60;99.90
15707;DHT22;7953;54.302;10.128;2022-08-24T16:43:42;26.60;99.90
15707;DHT22;7953;54.302;10.128;2022-08-24T16:46:11;26.50;99.90